createdAt,value
2023-04-02T00:01:51.649Z,91990.34
2023-04-02T00:04:23.189Z,91989.78
2023-04-02T00:06:55.460Z,91992.66
2023-04-02T00:09:27.547Z,91993.69
2023-04-02T00:11:56.949Z,91999.66
2023-04-02T00:14:30.052Z,91996.59
2023-04-02T00:16:59.605Z,91999.72
2023-04-02T00:19:35.187Z,91994.25
2023-04-02T00:22:03.157Z,92001.28
2023-04-02T00:24:29.632Z,91999.19
2023-04-02T00:26:56.187Z,91991.91
2023-04-02T00:29:22.772Z,92001.28
2023-04-02T00:31:54.387Z,92005.47
2023-04-02T00:34:22.408Z,91999.97
2023-04-02T00:36:51.008Z,91997.59
2023-04-02T00:39:22.362Z,91997.06
2023-04-02T00:42:05.000Z,92001.75
2023-04-02T00:44:34.228Z,92002.81
2023-04-02T00:47:35.397Z,91999.41
2023-04-02T00:50:22.008Z,91998.88
2023-04-02T00:52:52.419Z,91999.13
2023-04-02T00:55:32.916Z,92004.31
2023-04-02T00:58:01.137Z,92002.53
2023-04-02T01:00:32.059Z,92005.91
2023-04-02T01:03:22.778Z,92003.78
2023-04-02T01:05:55.764Z,92001.19
2023-04-02T01:08:42.951Z,92004.31
2023-04-02T01:11:30.777Z,91997.53
2023-04-02T01:14:36.625Z,91998.81
2023-04-02T01:17:11.246Z,92005.59
2023-04-02T01:20:28.893Z,92002.19
2023-04-02T01:23:08.055Z,92002.66
2023-04-02T01:25:43.292Z,92003.47
2023-04-02T01:28:29.441Z,92005.28
2023-04-02T01:30:58.810Z,92004.19
2023-04-02T01:33:30.236Z,92002.41
2023-04-02T01:36:11.629Z,92000.31
2023-04-02T01:38:47.875Z,92009.44
2023-04-02T01:41:28.380Z,92013.16
2023-04-02T01:44:41.862Z,92008.47
2023-04-02T01:47:14.678Z,92005.34
2023-04-02T01:49:43.566Z,92010.53
2023-04-02T01:52:17.279Z,92011.84
2023-04-02T01:54:45.570Z,92015.56
2023-04-02T01:57:12.305Z,92011.56
2023-04-02T01:59:39.976Z,92013.66
2023-04-02T02:02:12.409Z,92017.31
2023-04-02T02:04:40.957Z,92018.09
2023-04-02T02:07:16.256Z,92017.25
2023-04-02T02:09:48.833Z,92019.63
2023-04-02T02:12:16.064Z,92021.75
2023-04-02T02:14:50.761Z,92020.19
2023-04-02T02:17:28.085Z,92028.28
2023-04-02T02:19:59.431Z,92025.69
2023-04-02T02:22:33.694Z,92025.13
2023-04-02T02:25:03.071Z,92023.56
2023-04-02T02:27:49.902Z,92022.25
2023-04-02T02:30:27.360Z,92033.94
2023-04-02T02:33:01.009Z,92026.38
2023-04-02T02:35:34.402Z,92027.66
2023-04-02T02:38:25.711Z,92032.56
2023-04-02T02:40:56.855Z,92032.56
2023-04-02T02:43:25.456Z,92038.53
2023-04-02T02:45:53.959Z,92032.28
2023-04-02T02:48:26.174Z,92038.47
2023-04-02T02:51:17.994Z,92033.97
2023-04-02T02:53:49.934Z,92039.13
2023-04-02T02:56:17.049Z,92038.41
2023-04-02T02:58:44.427Z,92039.66
2023-04-02T03:01:18.731Z,92040.97
2023-04-02T03:03:47.774Z,92041.78
2023-04-02T03:06:17.168Z,92050.69
2023-04-02T03:08:54.226Z,92042.56
2023-04-02T03:11:50.604Z,92041.72
2023-04-02T03:14:32.831Z,92048.13
2023-04-02T03:17:08.786Z,92045.97
2023-04-02T03:19:45.647Z,92058.22
2023-04-02T03:22:37.577Z,92060.09
2023-04-02T03:25:21.178Z,92064.25
2023-04-02T03:27:51.582Z,92061.69
2023-04-02T03:30:24.266Z,92064.41
2023-04-02T03:32:56.340Z,92060.66
2023-04-02T03:35:31.669Z,92061.88
2023-04-02T03:38:13.017Z,92055.81
2023-04-02T03:40:54.067Z,92057.97
2023-04-02T03:43:25.805Z,92055.94
2023-04-02T03:46:05.652Z,92063.63
2023-04-02T03:48:46.631Z,92069.16
2023-04-02T03:51:40.820Z,92067.75
2023-04-02T03:54:15.509Z,92073.75
2023-04-02T03:56:47.432Z,92075.59
2023-04-02T03:59:34.657Z,92074.84
2023-04-02T04:02:12.750Z,92075.06
2023-04-02T04:04:41.988Z,92076.63
2023-04-02T04:07:30.668Z,92081.38
2023-04-02T04:09:59.482Z,92082.34
2023-04-02T04:12:40.480Z,92091.56
2023-04-02T04:15:15.281Z,92090.47
2023-04-02T04:17:51.548Z,92095.38
2023-04-02T04:20:25.965Z,92094.34
2023-04-02T04:22:56.220Z,92097.78
2023-04-02T04:25:30.444Z,92097.31
2023-04-02T04:28:24.211Z,92102.75
2023-04-02T04:31:17.850Z,92107.78
2023-04-02T04:33:50.623Z,92102.31
2023-04-02T04:36:27.819Z,92114.13
2023-04-02T04:39:07.408Z,92115.81
2023-04-02T04:41:38.673Z,92125.50
2023-04-02T04:44:23.226Z,92129.28
2023-04-02T04:46:55.318Z,92135.25
2023-04-02T04:49:44.254Z,92143.78
2023-04-02T04:52:22.050Z,92141.81
2023-04-02T04:54:48.775Z,92137.91
2023-04-02T04:57:41.683Z,92140.16
2023-04-02T05:00:22.616Z,92136.94
2023-04-02T05:03:09.164Z,92143.78
2023-04-02T05:05:39.505Z,92138.72
2023-04-02T05:08:20.958Z,92142.84
2023-04-02T05:10:58.105Z,92144.16
2023-04-02T05:13:57.203Z,92154.06
2023-04-02T05:16:29.546Z,92150.22
2023-04-02T05:18:56.016Z,92154.34
2023-04-02T05:21:33.195Z,92158.03
2023-04-02T05:24:29.581Z,92158.19
2023-04-02T05:27:02.670Z,92164.13
2023-04-02T05:29:38.425Z,92157.44
2023-04-02T05:32:17.122Z,92158.88
2023-04-02T05:34:51.556Z,92164.25
2023-04-02T05:37:21.005Z,92168.97
2023-04-02T05:39:52.554Z,92176.38
2023-04-02T05:42:31.578Z,92169.88
2023-04-02T05:45:20.274Z,92181.09
2023-04-02T05:47:51.900Z,92183.75
2023-04-02T05:50:47.232Z,92183.38
2023-04-02T05:53:28.851Z,92193.84
2023-04-02T05:56:16.486Z,92198.34
2023-04-02T05:58:50.224Z,92202.53
2023-04-02T06:01:36.150Z,92204.81
2023-04-02T06:04:30.240Z,92201.19
2023-04-02T06:07:21.710Z,92202.03
2023-04-02T06:10:04.985Z,92209.41
2023-04-02T06:12:43.569Z,92211.47
2023-04-02T06:15:15.412Z,92213.88
2023-04-02T06:17:58.369Z,92220.00
2023-04-02T06:20:25.636Z,92218.22
2023-04-02T06:23:31.269Z,92220.88
2023-04-02T06:26:10.259Z,92217.81
2023-04-02T06:28:46.205Z,92214.53
2023-04-02T06:31:28.178Z,92217.69
2023-04-02T06:33:56.442Z,92225.69
2023-04-02T06:36:27.161Z,92229.66
2023-04-02T06:38:59.092Z,92234.19
2023-04-02T06:41:25.872Z,92237.75
2023-04-02T06:44:16.909Z,92241.97
2023-04-02T06:47:26.292Z,92250.13
2023-04-02T06:50:13.975Z,92248.47
2023-04-02T06:52:48.673Z,92250.00
2023-04-02T06:55:46.587Z,92251.06
2023-04-02T06:58:17.325Z,92261.13
2023-04-02T07:00:46.624Z,92257.72
2023-04-02T07:03:28.793Z,92261.72
2023-04-02T07:05:59.954Z,92267.03
2023-04-02T07:08:26.533Z,92261.59
2023-04-02T07:10:52.993Z,92271.31
2023-04-02T07:13:22.692Z,92268.22
2023-04-02T07:15:52.341Z,92265.38
2023-04-02T07:18:28.801Z,92277.34
2023-04-02T07:20:56.971Z,92274.84
2023-04-02T07:23:26.494Z,92279.59
2023-04-02T07:25:54.552Z,92283.47
2023-04-02T07:28:22.741Z,92285.53
2023-04-02T07:30:50.460Z,92303.56
2023-04-02T07:33:20.589Z,92298.88
2023-04-02T07:35:48.070Z,92300.75
2023-04-02T07:38:14.541Z,92307.44
2023-04-02T07:40:41.166Z,92305.66
2023-04-02T07:43:07.664Z,92304.38
2023-04-02T07:45:34.785Z,92308.78
2023-04-02T07:48:09.085Z,92314.31
2023-04-02T07:50:35.999Z,92320.69
2023-04-02T07:53:02.663Z,92320.84
2023-04-02T07:55:29.144Z,92317.31
2023-04-02T07:57:58.473Z,92330.72
2023-04-02T08:00:26.639Z,92326.06
2023-04-02T08:02:53.455Z,92329.00
2023-04-02T08:05:19.996Z,92332.69
2023-04-02T08:07:56.839Z,92330.09
2023-04-02T08:10:24.180Z,92337.97
2023-04-02T08:12:50.739Z,92338.47
2023-04-02T08:15:17.402Z,92342.19
2023-04-02T08:17:44.629Z,92344.78
2023-04-02T08:20:18.081Z,92350.00
2023-04-02T08:22:45.761Z,92348.44
2023-04-02T08:25:12.841Z,92352.03
2023-04-02T08:27:39.712Z,92355.78
2023-04-02T08:30:08.810Z,92356.25
2023-04-02T08:32:35.733Z,92364.19
2023-04-02T08:35:02.627Z,92360.22
2023-04-02T08:37:29.136Z,92370.72
2023-04-02T08:39:55.739Z,92369.66
2023-04-02T08:42:27.078Z,92378.06
2023-04-02T08:45:21.271Z,92372.56
2023-04-02T08:47:55.290Z,92379.38
2023-04-02T08:50:44.601Z,92376.22
2023-04-02T08:53:19.350Z,92384.59
2023-04-02T08:56:08.350Z,92384.63
2023-04-02T08:58:42.352Z,92380.19
2023-04-02T09:01:27.249Z,92382.03
2023-04-02T09:03:58.173Z,92388.03
2023-04-02T09:06:26.092Z,92387.25
2023-04-02T09:08:54.208Z,92385.13
2023-04-02T09:11:24.925Z,92399.56
2023-04-02T09:13:57.120Z,92396.16
2023-04-02T09:16:46.877Z,92399.84
2023-04-02T09:19:33.029Z,92399.56
2023-04-02T09:22:06.412Z,92400.34
2023-04-02T09:24:33.417Z,92400.34
2023-04-02T09:27:00.045Z,92396.69
2023-04-02T09:29:39.132Z,92406.34
2023-04-02T09:32:21.878Z,92411.06
2023-04-02T09:34:48.363Z,92415.00
2023-04-02T09:37:18.836Z,92414.78
2023-04-02T09:39:45.643Z,92412.94
2023-04-02T09:42:36.241Z,92424.47
2023-04-02T09:45:20.857Z,92422.91
2023-04-02T09:47:48.201Z,92429.75
2023-04-02T09:50:34.429Z,92435.47
2023-04-02T09:53:31.226Z,92425.13
2023-04-02T09:56:23.078Z,92435.03
2023-04-02T09:59:18.263Z,92442.38
2023-04-02T10:01:48.636Z,92438.41
2023-04-02T10:04:44.959Z,92444.91
2023-04-02T10:07:34.494Z,92446.53
2023-04-02T10:10:21.183Z,92449.66
2023-04-02T10:12:56.883Z,92451.38
2023-04-02T10:15:33.071Z,92454.94
2023-04-02T10:18:15.685Z,92462.38
2023-04-02T10:20:51.055Z,92457.63
2023-04-02T10:23:19.496Z,92465.66
2023-04-02T10:25:55.684Z,92469.00
2023-04-02T10:28:27.507Z,92468.75
2023-04-02T10:31:17.299Z,92466.59
2023-04-02T10:33:50.297Z,92471.06
2023-04-02T10:36:50.474Z,92470.72
2023-04-02T10:39:28.065Z,92472.00
2023-04-02T10:42:01.842Z,92477.16
2023-04-02T10:44:31.948Z,92471.97
2023-04-02T10:47:08.019Z,92481.72
2023-04-02T10:49:53.783Z,92486.31
2023-04-02T10:52:26.646Z,92485.84
2023-04-02T10:55:01.438Z,92482.16
2023-04-02T10:57:35.044Z,92498.69
2023-04-02T11:00:17.895Z,92488.75
2023-04-02T11:03:11.303Z,92492.69
2023-04-02T11:05:47.814Z,92503.13
2023-04-02T11:08:28.208Z,92503.13
2023-04-02T11:11:17.138Z,92503.66
2023-04-02T11:13:59.321Z,92509.94
2023-04-02T11:16:27.487Z,92505.75
2023-04-02T11:19:15.830Z,92515.13
2023-04-02T11:21:57.804Z,92521.94
2023-04-02T11:24:34.480Z,92526.38
2023-04-02T11:27:10.313Z,92533.41
2023-04-02T11:29:52.797Z,92535.44
2023-04-02T11:32:22.110Z,92543.50
2023-04-02T11:34:56.420Z,92546.09
2023-04-02T11:37:36.990Z,92552.50
2023-04-02T11:40:44.624Z,92555.13
2023-04-02T11:43:32.883Z,92555.94
2023-04-02T11:46:26.647Z,92562.00
2023-04-02T11:48:55.065Z,92564.91
2023-04-02T11:51:22.409Z,92567.53
2023-04-02T11:53:54.609Z,92563.56
2023-04-02T11:56:52.139Z,92571.41
2023-04-02T11:59:33.878Z,92566.97
2023-04-02T12:02:50.087Z,92571.94
2023-04-02T12:05:26.554Z,92574.53
2023-04-02T12:08:24.287Z,92576.19
2023-04-02T12:11:02.289Z,92573.84
2023-04-02T12:13:41.065Z,92575.44
2023-04-02T12:16:09.608Z,92578.56
2023-04-02T12:18:41.629Z,92578.56
2023-04-02T12:21:08.249Z,92577.03
2023-04-02T12:23:37.081Z,92577.63
2023-04-02T12:26:06.769Z,92585.28
2023-04-02T12:28:33.914Z,92582.66
2023-04-02T12:31:09.499Z,92580.88
2023-04-02T12:33:38.236Z,92595.03
2023-04-02T12:36:14.528Z,92594.78
2023-04-02T12:38:53.853Z,92599.00
2023-04-02T12:41:33.356Z,92599.00
2023-04-02T12:44:06.388Z,92599.03
2023-04-02T12:46:35.192Z,92611.06
2023-04-02T12:49:19.774Z,92606.41
2023-04-02T12:51:47.262Z,92609.09
2023-04-02T12:54:18.391Z,92604.94
2023-04-02T12:56:45.214Z,92609.66
2023-04-02T12:59:31.960Z,92610.22
2023-04-02T13:01:59.995Z,92616.53
2023-04-02T13:04:26.811Z,92608.16
2023-04-02T13:06:56.964Z,92614.97
2023-04-02T13:09:31.352Z,92613.44
2023-04-02T13:11:58.266Z,92619.69
2023-04-02T13:14:25.693Z,92621.78
2023-04-02T13:16:52.220Z,92630.66
2023-04-02T13:19:29.398Z,92634.19
2023-04-02T13:21:58.538Z,92624.13
2023-04-02T13:24:27.681Z,92619.69
2023-04-02T13:26:57.228Z,92619.66
2023-04-02T13:29:31.001Z,92630.03
2023-04-02T13:32:03.390Z,92628.94
2023-04-02T13:34:30.188Z,92626.69
2023-04-02T13:36:57.450Z,92629.25
2023-04-02T13:39:24.768Z,92635.91
2023-04-02T13:42:02.788Z,92635.81
2023-04-02T13:44:36.915Z,92637.31
2023-04-02T13:47:03.637Z,92631.72
2023-04-02T13:49:31.764Z,92639.06
2023-04-02T13:52:04.201Z,92644.34
2023-04-02T13:54:44.764Z,92632.81
2023-04-02T13:57:11.753Z,92633.84
2023-04-02T13:59:38.304Z,92632.97
2023-04-02T14:02:17.976Z,92634.56
2023-04-02T14:04:50.650Z,92629.38
2023-04-02T14:07:42.314Z,92636.88
2023-04-02T14:10:17.687Z,92635.34
2023-04-02T14:13:03.278Z,92645.59
2023-04-02T14:15:59.495Z,92641.88
2023-04-02T14:18:59.233Z,92642.72
2023-04-02T14:21:52.023Z,92645.34
2023-04-02T14:24:21.056Z,92641.09
2023-04-02T14:26:53.543Z,92645.25
2023-04-02T14:29:37.796Z,92638.03
2023-04-02T14:32:15.443Z,92638.69
2023-04-02T14:34:53.408Z,92642.06
2023-04-02T14:37:47.645Z,92652.88
2023-04-02T14:40:23.770Z,92647.47
2023-04-02T14:42:50.184Z,92650.13
2023-04-02T14:45:28.361Z,92650.19
2023-04-02T14:48:02.088Z,92656.50
2023-04-02T14:50:35.572Z,92654.91
2023-04-02T14:53:12.313Z,92660.47
2023-04-02T14:55:43.522Z,92660.47
2023-04-02T14:58:18.839Z,92659.91
2023-04-02T15:00:54.928Z,92667.00
2023-04-02T15:03:24.332Z,92666.22
2023-04-02T15:06:41.604Z,92667.16
2023-04-02T15:09:28.162Z,92668.53
2023-04-02T15:11:57.114Z,92675.59
2023-04-02T15:14:39.720Z,92673.31
2023-04-02T15:17:09.837Z,92677.09
2023-04-02T15:19:36.249Z,92679.47
2023-04-02T15:22:15.322Z,92677.59
2023-04-02T15:25:10.388Z,92680.28
2023-04-02T15:28:08.273Z,92681.13
2023-04-02T15:30:38.086Z,92676.25
2023-04-02T15:33:43.389Z,92683.47
2023-04-02T15:36:29.466Z,92684.84
2023-04-02T15:39:21.461Z,92689.06
2023-04-02T15:42:30.875Z,92691.94
2023-04-02T15:45:12.582Z,92693.75
2023-04-02T15:48:08.495Z,92692.94
2023-04-02T15:50:50.282Z,92697.19
2023-04-02T15:53:34.193Z,92695.88
2023-04-02T15:56:08.577Z,92703.25
2023-04-02T15:59:28.751Z,92703.50
2023-04-02T16:02:23.240Z,92702.97
2023-04-02T16:05:03.314Z,92701.69
2023-04-02T16:08:00.615Z,92708.47
2023-04-02T16:10:41.899Z,92715.84
2023-04-02T16:13:26.494Z,92716.28
2023-04-02T16:16:02.337Z,92723.50
2023-04-02T16:18:47.201Z,92740.06
2023-04-02T16:21:21.952Z,92734.38
2023-04-02T16:23:49.082Z,92739.34
2023-04-02T16:26:36.786Z,92745.25
2023-04-02T16:29:12.327Z,92739.69
2023-04-02T16:32:00.797Z,92746.72
2023-04-02T16:34:52.487Z,92746.91
2023-04-02T16:37:27.611Z,92747.19
2023-04-02T16:40:22.564Z,92751.91
2023-04-02T16:43:13.940Z,92755.03
2023-04-02T16:45:52.251Z,92756.91
2023-04-02T16:48:46.739Z,92761.34
2023-04-02T16:51:31.206Z,92764.72
2023-04-02T16:54:05.450Z,92768.16
2023-04-02T16:57:02.566Z,92763.47
2023-04-02T16:59:48.470Z,92767.88
2023-04-02T17:02:31.069Z,92772.81
2023-04-02T17:05:32.475Z,92783.84
2023-04-02T17:08:21.002Z,92770.75
2023-04-02T17:11:06.282Z,92784.03
2023-04-02T17:13:35.813Z,92798.91
2023-04-02T17:16:30.619Z,92791.03
2023-04-02T17:18:59.809Z,92803.56
2023-04-02T17:21:28.408Z,92810.00
2023-04-02T17:24:02.074Z,92812.41
2023-04-02T17:26:32.485Z,92811.78
2023-04-02T17:29:02.740Z,92818.00
2023-04-02T17:31:34.896Z,92826.88
2023-04-02T17:34:16.341Z,92817.25
2023-04-02T17:36:57.260Z,92831.34
2023-04-02T17:39:35.767Z,92832.50
2023-04-02T17:42:13.115Z,92840.28
2023-04-02T17:44:54.844Z,92843.75
2023-04-02T17:47:23.237Z,92848.97
2023-04-02T17:50:16.810Z,92861.00
2023-04-02T17:52:53.281Z,92857.84
2023-04-02T17:55:40.678Z,92858.88
2023-04-02T17:58:32.895Z,92862.13
2023-04-02T18:01:12.132Z,92863.41
2023-04-02T18:04:08.055Z,92865.69
2023-04-02T18:06:46.755Z,92865.63
2023-04-02T18:09:31.693Z,92876.09
2023-04-02T18:12:24.264Z,92870.63
2023-04-02T18:15:24.910Z,92879.56
2023-04-02T18:17:58.461Z,92887.25
2023-04-02T18:20:51.622Z,92883.06
2023-04-02T18:23:41.318Z,92890.91
2023-04-02T18:26:19.663Z,92884.25
2023-04-02T18:29:07.900Z,92893.34
2023-04-02T18:31:45.218Z,92899.13
2023-04-02T18:34:26.780Z,92902.72
2023-04-02T18:36:56.141Z,92905.25
2023-04-02T18:39:44.278Z,92916.09
2023-04-02T18:42:44.796Z,92919.97
2023-04-02T18:45:36.069Z,92921.41
2023-04-02T18:48:31.491Z,92927.41
2023-04-02T18:51:00.297Z,92932.28
2023-04-02T18:53:30.195Z,92934.53
2023-04-02T18:56:01.471Z,92937.84
2023-04-02T18:58:40.923Z,92939.00
2023-04-02T19:01:10.727Z,92942.53
2023-04-02T19:03:45.077Z,92938.72
2023-04-02T19:06:19.209Z,92948.16
2023-04-02T19:08:51.034Z,92955.44
2023-04-02T19:11:28.735Z,92961.41
2023-04-02T19:13:58.515Z,92960.19
2023-04-02T19:16:55.751Z,92961.00
2023-04-02T19:19:27.619Z,92963.22
2023-04-02T19:21:53.986Z,92975.59
2023-04-02T19:24:36.280Z,92980.16
2023-04-02T19:27:21.475Z,92982.09
2023-04-02T19:30:16.334Z,92990.69
2023-04-02T19:33:10.002Z,92987.16
2023-04-02T19:36:17.059Z,92991.34
2023-04-02T19:38:58.052Z,93001.56
2023-04-02T19:41:39.247Z,93001.97
2023-04-02T19:44:11.768Z,93004.63
2023-04-02T19:46:39.336Z,93009.00
2023-04-02T19:49:11.594Z,93000.97
2023-04-02T19:51:38.125Z,93004.34
2023-04-02T19:54:04.680Z,93009.72
2023-04-02T19:56:31.136Z,93014.69
2023-04-02T19:58:58.315Z,93010.13
2023-04-02T20:01:26.625Z,93020.00
2023-04-02T20:03:53.163Z,93024.47
2023-04-02T20:06:19.657Z,93026.06
2023-04-02T20:08:46.062Z,93029.25
2023-04-02T20:11:12.550Z,93033.44
2023-04-02T20:13:39.110Z,93030.59
2023-04-02T20:16:06.793Z,93041.56
2023-04-02T20:18:34.205Z,93037.16
2023-04-02T20:21:04.862Z,93041.13
2023-04-02T20:23:31.311Z,93046.97
2023-04-02T20:25:57.856Z,93048.59
2023-04-02T20:28:26.585Z,93052.44
2023-04-02T20:30:53.891Z,93060.34
2023-04-02T20:33:23.127Z,93059.13
2023-04-02T20:35:51.277Z,93061.34
2023-04-02T20:38:18.740Z,93063.28
2023-04-02T20:40:52.018Z,93070.88
2023-04-02T20:43:18.462Z,93080.63
2023-04-02T20:45:54.564Z,93081.31
2023-04-02T20:48:22.135Z,93080.84
2023-04-02T20:50:49.358Z,93086.97
2023-04-02T20:53:17.157Z,93088.03
2023-04-02T20:55:45.734Z,93095.41
2023-04-02T20:58:18.143Z,93085.41
2023-04-02T21:00:45.780Z,93093.25
2023-04-02T21:03:12.211Z,93092.97
2023-04-02T21:05:46.335Z,93095.72
2023-04-02T21:08:13.878Z,93096.16
2023-04-02T21:10:40.349Z,93103.00
2023-04-02T21:13:07.141Z,93096.41
2023-04-02T21:15:33.676Z,93098.38
2023-04-02T21:18:00.583Z,93108.03
2023-04-02T21:20:27.066Z,93104.09
2023-04-02T21:22:53.498Z,93111.75
2023-04-02T21:25:20.125Z,93112.81
2023-04-02T21:27:46.559Z,93117.34
2023-04-02T21:30:13.180Z,93117.78
2023-04-02T21:32:39.671Z,93115.63
2023-04-02T21:35:07.500Z,93119.16
2023-04-02T21:37:33.941Z,93122.84
2023-04-02T21:40:00.530Z,93114.88
2023-04-02T21:42:27.830Z,93123.25
2023-04-02T21:44:55.844Z,93110.97
2023-04-02T21:47:23.450Z,93114.44
2023-04-02T21:49:49.981Z,93125.19
2023-04-02T21:52:16.433Z,93130.56
2023-04-02T21:54:42.828Z,93120.94
2023-04-02T21:57:09.361Z,93130.28
2023-04-02T21:59:35.944Z,93137.66
2023-04-02T22:02:02.496Z,93121.47
2023-04-02T22:04:30.551Z,93125.41
2023-04-02T22:06:57.225Z,93126.81
2023-04-02T22:09:25.603Z,93126.06
2023-04-02T22:11:55.172Z,93129.38
2023-04-02T22:14:23.333Z,93131.34
2023-04-02T22:16:49.851Z,93142.13
2023-04-02T22:19:17.034Z,93137.38
2023-04-02T22:21:43.949Z,93141.06
2023-04-02T22:24:13.834Z,93144.25
2023-04-02T22:26:41.184Z,93159.97
2023-04-02T22:29:08.006Z,93144.94
2023-04-02T22:31:35.198Z,93150.41
2023-04-02T22:34:02.769Z,93151.22
2023-04-02T22:36:30.175Z,93153.81
2023-04-02T22:38:58.058Z,93147.75
2023-04-02T22:41:27.920Z,93153.53
2023-04-02T22:43:58.537Z,93162.47
2023-04-02T22:46:26.725Z,93168.97
2023-04-02T22:48:53.375Z,93164.16
2023-04-02T22:51:21.682Z,93165.88
2023-04-02T22:53:49.235Z,93165.13
2023-04-02T22:56:22.035Z,93166.84
2023-04-02T22:58:49.047Z,93168.66
2023-04-02T23:01:28.534Z,93165.50
2023-04-02T23:03:55.929Z,93167.47
2023-04-02T23:06:23.436Z,93168.66
2023-04-02T23:08:49.891Z,93176.06
2023-04-02T23:11:24.684Z,93172.41
2023-04-02T23:13:52.530Z,93172.81
2023-04-02T23:16:20.247Z,93174.22
2023-04-02T23:18:48.252Z,93169.00
2023-04-02T23:21:16.573Z,93167.69
2023-04-02T23:23:43.435Z,93171.47
2023-04-02T23:26:13.332Z,93161.66
2023-04-02T23:28:40.849Z,93161.66
2023-04-02T23:31:11.672Z,93164.06
2023-04-02T23:33:38.173Z,93173.25
2023-04-02T23:36:09.732Z,93177.44
2023-04-02T23:38:36.245Z,93175.69
2023-04-02T23:41:02.911Z,93187.13
2023-04-02T23:43:29.315Z,93186.13
2023-04-02T23:45:55.799Z,93185.31
2023-04-02T23:48:22.293Z,93183.28
2023-04-02T23:50:48.715Z,93186.47
2023-04-02T23:53:16.413Z,93184.88
2023-04-02T23:55:43.062Z,93185.72
2023-04-02T23:58:09.536Z,93188.09
